Time;durP1;ratioP1;P1;durP2;ratioP2;P2;SDS_P1;SDS_P2;PMS_P1;PMS_P2;Temp;Humidity;BMP_temperature;BMP_pressure;BME280_temperature;BME280_humidity;BME280_pressure;Samples;Min_cycle;Max_cycle;Signal;HPM_P1;HPM_P2
2022/04/14 00:00:02;;;;;;;;;;;19.00;62.40;;;;;;4937193;28;20317;-86
2022/04/14 00:02:27;;;;;;;;;;;19.00;62.40;;;;;;4959114;28;19930;-85
2022/04/14 00:04:53;;;;;;;;;;;18.90;62.50;;;;;;4964931;28;20256;-86
2022/04/14 00:07:18;;;;;;;;;;;18.90;62.60;;;;;;4957583;28;20001;-84
2022/04/14 00:09:44;;;;;;;;;;;19.00;62.60;;;;;;4953839;28;19922;-86
2022/04/14 00:12:09;;;;;;;;;;;18.90;62.70;;;;;;4952357;28;19926;-84
2022/04/14 00:14:35;;;;;;;;;;;18.90;63.00;;;;;;4954905;28;20021;-85
2022/04/14 00:17:00;;;;;;;;;;;18.90;63.10;;;;;;4953876;28;19925;-84
2022/04/14 00:19:26;;;;;;;;;;;18.90;63.00;;;;;;4955239;28;19914;-84
2022/04/14 00:21:51;;;;;;;;;;;18.90;63.20;;;;;;4961157;28;19926;-85
2022/04/14 00:24:17;;;;;;;;;;;18.90;63.20;;;;;;4965225;28;19915;-84
2022/04/14 00:26:44;;;;;;;;;;;18.90;63.30;;;;;;4963338;28;20009;-85
2022/04/14 00:29:11;;;;;;;;;;;18.90;63.30;;;;;;4955133;28;19973;-86
2022/04/14 00:31:37;;;;;;;;;;;18.90;63.50;;;;;;4950419;28;19923;-85
2022/04/14 00:34:02;;;;;;;;;;;18.90;63.50;;;;;;4968750;28;19914;-85
2022/04/14 00:36:28;;;;;;;;;;;18.90;63.50;;;;;;4963299;28;20359;-85
2022/04/14 00:38:54;;;;;;;;;;;18.90;63.60;;;;;;4961990;28;19949;-85
2022/04/14 00:41:19;;;;;;;;;;;18.90;63.60;;;;;;4956006;28;20396;-85
2022/04/14 00:43:50;;;;;;;;;;;18.90;63.70;;;;;;4971048;28;19953;-85
2022/04/14 00:46:15;;;;;;;;;;;18.90;63.70;;;;;;4960574;28;20282;-85
2022/04/14 00:48:41;;;;;;;;;;;18.90;63.70;;;;;;4966838;28;19922;-85
2022/04/14 00:51:07;;;;;;;;;;;18.90;63.70;;;;;;4956379;29;19930;-85
2022/04/14 00:53:32;;;;;;;;;;;18.80;63.80;;;;;;4939297;29;20405;-85
2022/04/14 00:55:58;;;;;;;;;;;18.80;63.80;;;;;;4957142;29;19919;-85
2022/04/14 00:58:23;;;;;;;;;;;18.80;63.90;;;;;;4956540;29;19936;-85
2022/04/14 01:00:49;;;;;;;;;;;18.80;63.90;;;;;;4938965;29;19918;-86
2022/04/14 01:03:15;;;;;;;;;;;18.80;63.90;;;;;;4954236;28;19918;-85
2022/04/14 01:05:42;;;;;;;;;;;18.70;63.90;;;;;;4964348;28;20031;-85
2022/04/14 01:08:07;;;;;;;;;;;18.70;64.00;;;;;;4959074;28;20013;-85
2022/04/14 01:10:33;;;;;;;;;;;18.70;64.00;;;;;;4950549;28;19957;-86
2022/04/14 01:12:59;;;;;;;;;;;18.60;64.10;;;;;;4970392;28;19937;-86
2022/04/14 01:15:25;;;;;;;;;;;18.60;64.10;;;;;;4963199;28;19914;-85
2022/04/14 01:17:50;;;;;;;;;;;18.60;64.10;;;;;;4939011;29;19918;-86
2022/04/14 01:20:15;;;;;;;;;;;18.60;64.20;;;;;;4962817;28;19937;-85
2022/04/14 01:22:53;;;;;;;;;;;18.60;64.20;;;;;;4961532;28;19922;-85
2022/04/14 01:25:18;;;;;;;;;;;18.50;64.20;;;;;;4971235;28;20380;-85
2022/04/14 01:27:44;;;;;;;;;;;18.50;64.30;;;;;;4955135;28;20017;-86
2022/04/14 01:30:09;;;;;;;;;;;18.40;64.30;;;;;;4968844;28;19969;-85
2022/04/14 01:32:35;;;;;;;;;;;18.40;64.40;;;;;;4953718;28;20220;-85
2022/04/14 01:35:00;;;;;;;;;;;18.40;64.30;;;;;;4964922;28;19933;-87
2022/04/14 01:37:25;;;;;;;;;;;18.40;64.20;;;;;;4962661;28;20387;-85
2022/04/14 01:39:51;;;;;;;;;;;18.40;64.30;;;;;;4974222;28;19914;-86
2022/04/14 01:42:16;;;;;;;;;;;18.40;64.40;;;;;;4954428;28;19918;-86
2022/04/14 01:44:42;;;;;;;;;;;18.40;64.40;;;;;;4947236;29;20031;-85
2022/04/14 01:47:07;;;;;;;;;;;18.40;64.50;;;;;;4953653;28;19918;-86
2022/04/14 01:49:33;;;;;;;;;;;18.30;64.50;;;;;;4955218;28;19929;-85
2022/04/14 01:51:58;;;;;;;;;;;18.40;64.40;;;;;;4963063;28;20425;-86
2022/04/14 01:54:24;;;;;;;;;;;18.30;64.40;;;;;;4962856;28;19930;-86
2022/04/14 01:56:49;;;;;;;;;;;18.30;64.60;;;;;;4958380;28;19919;-85
2022/04/14 01:59:15;;;;;;;;;;;18.30;64.60;;;;;;4948031;28;20031;-85
2022/04/14 02:01:40;;;;;;;;;;;18.30;64.50;;;;;;4973312;28;20358;-85
2022/04/14 02:04:07;;;;;;;;;;;18.30;64.50;;;;;;4955268;28;20358;-85
2022/04/14 02:06:33;;;;;;;;;;;18.30;64.60;;;;;;4973661;28;20426;-85
2022/04/14 02:08:58;;;;;;;;;;;18.30;64.50;;;;;;4951805;28;20021;-85
2022/04/14 02:11:24;;;;;;;;;;;18.30;64.50;;;;;;4963434;28;19927;-86
2022/04/14 02:13:49;;;;;;;;;;;18.30;64.50;;;;;;4947672;28;19915;-85
2022/04/14 02:16:16;;;;;;;;;;;18.30;64.50;;;;;;4955728;28;19930;-85
2022/04/14 02:18:42;;;;;;;;;;;18.30;64.50;;;;;;4960331;28;19925;-84
2022/04/14 02:21:07;;;;;;;;;;;18.20;64.50;;;;;;4955420;28;19918;-85
2022/04/14 02:23:33;;;;;;;;;;;18.20;64.60;;;;;;4965501;28;19918;-85
2022/04/14 02:25:58;;;;;;;;;;;18.20;64.60;;;;;;4943551;28;19919;-85
2022/04/14 02:28:24;;;;;;;;;;;18.20;64.50;;;;;;4954978;28;19927;-86
2022/04/14 02:30:49;;;;;;;;;;;18.20;64.30;;;;;;4965841;28;19923;-85
2022/04/14 02:33:15;;;;;;;;;;;18.10;64.40;;;;;;4952610;28;19955;-86
2022/04/14 02:35:40;;;;;;;;;;;18.10;64.50;;;;;;4942355;29;19925;-86
2022/04/14 02:38:06;;;;;;;;;;;18.10;64.40;;;;;;4957799;28;20031;-85
2022/04/14 02:40:31;;;;;;;;;;;18.10;64.40;;;;;;4948932;28;19915;-85
2022/04/14 02:42:58;;;;;;;;;;;18.00;64.30;;;;;;4968793;28;19930;-86
2022/04/14 02:45:24;;;;;;;;;;;18.00;64.40;;;;;;4965640;28;19978;-85
2022/04/14 02:47:50;;;;;;;;;;;18.00;64.30;;;;;;4967418;28;19914;-86
2022/04/14 02:50:16;;;;;;;;;;;18.00;64.40;;;;;;4953326;28;20262;-85
2022/04/14 02:52:41;;;;;;;;;;;18.00;64.50;;;;;;4949309;28;19951;-86
2022/04/14 02:55:07;;;;;;;;;;;18.00;64.50;;;;;;4956854;28;19953;-84
2022/04/14 02:57:34;;;;;;;;;;;18.00;64.40;;;;;;4970242;28;19997;-85
2022/04/14 02:59:59;;;;;;;;;;;18.00;64.30;;;;;;4962310;28;19919;-86
2022/04/14 03:02:25;;;;;;;;;;;18.00;64.30;;;;;;4952109;28;19929;-85
2022/04/14 03:04:51;;;;;;;;;;;17.90;64.30;;;;;;4950547;28;19941;-85
2022/04/14 03:07:17;;;;;;;;;;;17.90;64.20;;;;;;4952789;28;20266;-86
2022/04/14 03:09:42;;;;;;;;;;;17.90;64.10;;;;;;4949375;28;19926;-85
2022/04/14 03:12:08;;;;;;;;;;;17.90;64.20;;;;;;4942752;28;19914;-85
2022/04/14 03:14:34;;;;;;;;;;;17.90;64.30;;;;;;4955269;28;19965;-85
2022/04/14 03:16:59;;;;;;;;;;;17.80;64.20;;;;;;4965036;28;19921;-84
2022/04/14 03:19:25;;;;;;;;;;;17.90;64.20;;;;;;4953625;28;19923;-84
2022/04/14 03:21:50;;;;;;;;;;;17.90;64.20;;;;;;4955177;28;20005;-84
2022/04/14 03:24:15;;;;;;;;;;;17.80;64.10;;;;;;4955892;28;19926;-86
2022/04/14 03:26:41;;;;;;;;;;;17.80;64.10;;;;;;4954485;28;19965;-85
2022/04/14 03:29:07;;;;;;;;;;;17.80;64.20;;;;;;4969135;28;19922;-85
2022/04/14 03:31:32;;;;;;;;;;;17.80;64.20;;;;;;4953752;28;19925;-84
2022/04/14 03:33:58;;;;;;;;;;;17.80;64.20;;;;;;4951522;28;19919;-84
2022/04/14 03:36:23;;;;;;;;;;;17.80;64.10;;;;;;4964792;28;20489;-85
2022/04/14 03:38:49;;;;;;;;;;;17.70;64.10;;;;;;4939323;29;19981;-85
2022/04/14 03:41:14;;;;;;;;;;;17.70;64.10;;;;;;4951274;28;19941;-85
2022/04/14 03:43:40;;;;;;;;;;;17.70;64.10;;;;;;4957025;28;20355;-85
2022/04/14 03:46:05;;;;;;;;;;;17.70;64.20;;;;;;4967090;28;20008;-84
2022/04/14 03:48:31;;;;;;;;;;;17.70;64.20;;;;;;4964314;28;19929;-84
2022/04/14 03:50:56;;;;;;;;;;;17.80;64.10;;;;;;4955166;28;19918;-85
2022/04/14 03:53:22;;;;;;;;;;;17.80;64.10;;;;;;4967550;28;19918;-85
2022/04/14 03:55:48;;;;;;;;;;;17.80;64.00;;;;;;4964964;28;19918;-85
2022/04/14 03:58:16;;;;;;;;;;;17.80;64.00;;;;;;4963699;28;19934;-85
2022/04/14 04:00:42;;;;;;;;;;;17.70;63.80;;;;;;4959897;28;20353;-85
2022/04/14 04:03:08;;;;;;;;;;;17.70;63.90;;;;;;4939698;28;19925;-85
2022/04/14 04:05:34;;;;;;;;;;;17.70;64.00;;;;;;4974699;28;20370;-85
2022/04/14 04:07:59;;;;;;;;;;;17.70;63.90;;;;;;4959630;28;20371;-85
2022/04/14 04:10:25;;;;;;;;;;;17.70;63.90;;;;;;4949219;28;19941;-85
2022/04/14 04:12:50;;;;;;;;;;;17.60;63.90;;;;;;4968045;28;19914;-85
2022/04/14 04:15:15;;;;;;;;;;;17.60;64.00;;;;;;4957103;28;20020;-86
2022/04/14 04:17:41;;;;;;;;;;;17.60;64.00;;;;;;4970846;28;19937;-86
2022/04/14 04:20:07;;;;;;;;;;;17.60;64.00;;;;;;4947387;28;19973;-86
2022/04/14 04:22:33;;;;;;;;;;;17.60;64.00;;;;;;4947015;29;19914;-85
2022/04/14 04:24:59;;;;;;;;;;;17.60;64.00;;;;;;4964513;28;19919;-86
2022/04/14 04:27:25;;;;;;;;;;;17.60;64.10;;;;;;4972363;28;19922;-86
2022/04/14 04:29:50;;;;;;;;;;;17.60;64.10;;;;;;4951980;28;20274;-86
2022/04/14 04:32:16;;;;;;;;;;;17.60;64.00;;;;;;4943549;28;19922;-85
2022/04/14 04:34:41;;;;;;;;;;;17.70;64.00;;;;;;4974265;28;20378;-85
2022/04/14 04:37:07;;;;;;;;;;;17.70;64.00;;;;;;4965431;28;19914;-85
2022/04/14 04:39:32;;;;;;;;;;;17.70;64.00;;;;;;4967625;28;20009;-85
2022/04/14 04:41:58;;;;;;;;;;;17.70;64.00;;;;;;4965619;28;19925;-84
2022/04/14 04:44:23;;;;;;;;;;;17.70;63.90;;;;;;4962210;28;19919;-85
2022/04/14 04:46:49;;;;;;;;;;;17.70;63.90;;;;;;4973317;28;20014;-85
2022/04/14 04:49:14;;;;;;;;;;;17.70;63.90;;;;;;4958228;28;19927;-85
2022/04/14 04:51:40;;;;;;;;;;;17.70;63.90;;;;;;4956803;28;19924;-85
2022/04/14 04:54:05;;;;;;;;;;;17.70;63.90;;;;;;4959832;28;19930;-86
2022/04/14 04:56:30;;;;;;;;;;;17.80;63.90;;;;;;4970239;28;19920;-85
2022/04/14 04:58:56;;;;;;;;;;;17.80;64.00;;;;;;4955806;28;20358;-85
2022/04/14 05:01:21;;;;;;;;;;;17.80;64.00;;;;;;4972800;28;19922;-85
2022/04/14 05:03:47;;;;;;;;;;;17.80;64.10;;;;;;4976569;28;19925;-85
2022/04/14 05:06:12;;;;;;;;;;;17.90;64.20;;;;;;4970580;28;19917;-85
2022/04/14 05:08:38;;;;;;;;;;;17.90;64.30;;;;;;4961046;28;19933;-85
2022/04/14 05:11:05;;;;;;;;;;;18.00;64.30;;;;;;4984048;28;19918;-84
2022/04/14 05:13:30;;;;;;;;;;;18.00;64.30;;;;;;4967380;28;19925;-85
2022/04/14 05:15:56;;;;;;;;;;;18.00;64.20;;;;;;4989731;28;19914;-86
2022/04/14 05:18:21;;;;;;;;;;;18.10;64.20;;;;;;4961279;28;19919;-86
2022/04/14 05:20:47;;;;;;;;;;;18.10;64.20;;;;;;4982828;28;20653;-85
2022/04/14 05:23:12;;;;;;;;;;;18.10;64.20;;;;;;4978447;28;19918;-85
2022/04/14 05:25:41;;;;;;;;;;;18.10;64.10;;;;;;4988490;28;19921;-85
2022/04/14 05:28:07;;;;;;;;;;;18.10;64.00;;;;;;4988735;28;19936;-86
2022/04/14 05:30:32;;;;;;;;;;;18.10;64.10;;;;;;4970061;28;19918;-86
2022/04/14 05:32:58;;;;;;;;;;;18.00;64.00;;;;;;4969057;28;20354;-85
2022/04/14 05:35:23;;;;;;;;;;;18.10;64.00;;;;;;4982001;28;20285;-86
2022/04/14 05:37:49;;;;;;;;;;;18.10;64.00;;;;;;4983220;28;19914;-86
2022/04/14 05:40:14;;;;;;;;;;;18.10;64.00;;;;;;4984770;28;20377;-85
2022/04/14 05:42:45;;;;;;;;;;;18.10;64.00;;;;;;4966786;28;19929;-85
2022/04/14 05:45:12;;;;;;;;;;;18.20;64.10;;;;;;4970896;28;19918;-85
2022/04/14 05:47:38;;;;;;;;;;;18.20;64.10;;;;;;4980593;28;20016;-85
2022/04/14 05:50:03;;;;;;;;;;;18.20;64.20;;;;;;4968826;28;20052;-85
2022/04/14 05:52:29;;;;;;;;;;;18.20;64.20;;;;;;4979592;28;19921;-85
2022/04/14 05:54:54;;;;;;;;;;;18.30;64.20;;;;;;4961798;28;19918;-85
2022/04/14 05:57:22;;;;;;;;;;;18.30;64.20;;;;;;4961190;28;19921;-86
2022/04/14 05:59:47;;;;;;;;;;;18.30;64.30;;;;;;4986255;28;20282;-86
2022/04/14 06:02:13;;;;;;;;;;;18.30;64.40;;;;;;4964391;28;19914;-86
2022/04/14 06:04:38;;;;;;;;;;;18.40;64.40;;;;;;4969001;28;20028;-86
2022/04/14 06:07:04;;;;;;;;;;;18.40;64.40;;;;;;4986769;28;20321;-85
2022/04/14 06:09:29;;;;;;;;;;;18.50;64.40;;;;;;4964443;28;20005;-85
2022/04/14 06:11:55;;;;;;;;;;;18.50;64.40;;;;;;4972347;28;19954;-85
2022/04/14 06:14:20;;;;;;;;;;;18.50;64.50;;;;;;4982247;28;19918;-85
2022/04/14 06:16:46;;;;;;;;;;;18.60;64.60;;;;;;4964868;28;19966;-85
2022/04/14 06:19:11;;;;;;;;;;;18.60;64.70;;;;;;4971892;28;20428;-85
2022/04/14 06:21:37;;;;;;;;;;;18.70;64.70;;;;;;4980682;28;19914;-85
2022/04/14 06:24:03;;;;;;;;;;;18.70;64.60;;;;;;4983064;28;19914;-85
2022/04/14 06:26:28;;;;;;;;;;;18.80;64.50;;;;;;4961983;28;19921;-85
2022/04/14 06:28:54;;;;;;;;;;;18.80;64.40;;;;;;4966894;28;20404;-85
2022/04/14 06:31:19;;;;;;;;;;;18.80;64.50;;;;;;4981203;28;20004;-87
2022/04/14 06:33:44;;;;;;;;;;;18.90;64.70;;;;;;4979895;28;19914;-85
2022/04/14 06:36:10;;;;;;;;;;;19.00;64.60;;;;;;4986037;28;19937;-85
2022/04/14 06:38:36;;;;;;;;;;;19.00;64.70;;;;;;4967638;28;19918;-86
2022/04/14 06:41:01;;;;;;;;;;;19.10;64.80;;;;;;4980176;28;19922;-86
2022/04/14 06:43:28;;;;;;;;;;;19.20;64.90;;;;;;4962164;28;19914;-86
2022/04/14 06:45:54;;;;;;;;;;;19.30;65.00;;;;;;4972912;28;19965;-85
2022/04/14 06:48:19;;;;;;;;;;;19.40;65.00;;;;;;4959559;28;19918;-86
2022/04/14 06:50:45;;;;;;;;;;;19.50;65.00;;;;;;4983754;28;20482;-85
2022/04/14 06:53:10;;;;;;;;;;;19.60;65.20;;;;;;4982010;28;19914;-87
2022/04/14 06:55:37;;;;;;;;;;;19.70;65.30;;;;;;4971033;28;19941;-85
2022/04/14 06:58:03;;;;;;;;;;;19.80;65.40;;;;;;4958710;28;19922;-85
2022/04/14 07:00:29;;;;;;;;;;;20.00;65.60;;;;;;4959734;28;19917;-85
2022/04/14 07:02:55;;;;;;;;;;;20.20;65.70;;;;;;4960584;28;19922;-86
2022/04/14 07:05:22;;;;;;;;;;;20.40;65.50;;;;;;4984817;28;19914;-85
2022/04/14 07:07:48;;;;;;;;;;;20.50;65.50;;;;;;4981946;28;19918;-86
2022/04/14 07:10:13;;;;;;;;;;;20.70;65.60;;;;;;4975665;28;19937;-85
2022/04/14 07:12:39;;;;;;;;;;;20.90;66.00;;;;;;4958336;28;20286;-85
2022/04/14 07:15:06;;;;;;;;;;;21.20;66.10;;;;;;4973221;28;20200;-85
2022/04/14 07:17:32;;;;;;;;;;;21.30;66.20;;;;;;4970890;28;19920;-86
2022/04/14 07:19:58;;;;;;;;;;;21.50;66.30;;;;;;4968842;28;19921;-85
2022/04/14 07:22:24;;;;;;;;;;;21.70;66.20;;;;;;4964854;28;19921;-87
2022/04/14 07:24:50;;;;;;;;;;;21.90;66.10;;;;;;4987401;28;19920;-87
2022/04/14 07:27:17;;;;;;;;;;;22.20;65.60;;;;;;4980694;28;19930;-86
2022/04/14 07:29:44;;;;;;;;;;;22.30;65.70;;;;;;4965049;28;19926;-86
2022/04/14 07:32:09;;;;;;;;;;;22.40;65.80;;;;;;4982387;28;19914;-87
2022/04/14 07:34:34;;;;;;;;;;;22.50;65.50;;;;;;4953339;28;19925;-87
2022/04/14 07:37:03;;;;;;;;;;;22.60;65.40;;;;;;4969817;28;20769;-88
2022/04/14 07:39:29;;;;;;;;;;;22.70;64.80;;;;;;4966499;28;19965;-87
2022/04/14 07:41:54;;;;;;;;;;;22.70;64.70;;;;;;4952576;28;19945;-87
2022/04/14 07:44:20;;;;;;;;;;;22.80;64.60;;;;;;4966435;28;19922;-87
2022/04/14 07:46:45;;;;;;;;;;;22.80;64.60;;;;;;4958732;28;19918;-87
2022/04/14 07:49:11;;;;;;;;;;;22.80;64.90;;;;;;4980990;28;19930;-87
2022/04/14 07:51:36;;;;;;;;;;;22.90;64.40;;;;;;4974418;28;20453;-87
2022/04/14 07:54:02;;;;;;;;;;;22.90;64.50;;;;;;4979705;28;19937;-87
2022/04/14 07:56:27;;;;;;;;;;;23.00;64.30;;;;;;4961953;28;20263;-86
2022/04/14 07:58:56;;;;;;;;;;;23.00;64.30;;;;;;4966064;28;20005;-85
2022/04/14 08:01:21;;;;;;;;;;;23.10;64.40;;;;;;4961916;28;20013;-87
2022/04/14 08:03:47;;;;;;;;;;;23.10;63.80;;;;;;4963367;28;19957;-87
2022/04/14 08:06:13;;;;;;;;;;;23.10;64.20;;;;;;4955204;28;19924;-87
2022/04/14 08:08:48;;;;;;;;;;;23.10;64.20;;;;;;4969479;28;20374;-86
2022/04/14 08:11:14;;;;;;;;;;;23.20;64.30;;;;;;4954119;28;19942;-87
2022/04/14 08:13:41;;;;;;;;;;;23.30;64.50;;;;;;4977356;28;19922;-87
2022/04/14 08:16:08;;;;;;;;;;;23.40;64.50;;;;;;4960323;28;20383;-87
2022/04/14 08:18:35;;;;;;;;;;;23.50;64.80;;;;;;4963150;28;20306;-87
2022/04/14 08:21:00;;;;;;;;;;;23.80;65.10;;;;;;4969800;28;19914;-87
2022/04/14 08:23:29;;;;;;;;;;;24.10;65.50;;;;;;4959807;28;19969;-86
2022/04/14 08:25:54;;;;;;;;;;;24.40;65.80;;;;;;4966283;28;20354;-86
2022/04/14 08:28:20;;;;;;;;;;;24.80;66.00;;;;;;4982404;28;20032;-88
2022/04/14 08:30:45;;;;;;;;;;;25.20;66.20;;;;;;4967076;28;19926;-88
2022/04/14 08:33:12;;;;;;;;;;;25.70;66.10;;;;;;4954294;28;19926;-87
2022/04/14 08:35:37;;;;;;;;;;;26.20;65.30;;;;;;4940118;28;19918;-87
2022/04/14 08:38:07;;;;;;;;;;;26.40;63.90;;;;;;4961052;28;20013;-87
2022/04/14 08:40:41;;;;;;;;;;;26.50;62.70;;;;;;4972061;28;19914;-88
2022/04/14 08:43:07;;;;;;;;;;;26.50;61.70;;;;;;4972824;28;19949;-88
2022/04/14 08:45:34;;;;;;;;;;;26.50;60.90;;;;;;4969741;28;19921;-87
2022/04/14 08:48:03;;;;;;;;;;;26.40;60.60;;;;;;4968426;28;20370;-87
2022/04/14 08:50:29;;;;;;;;;;;26.40;61.20;;;;;;4959416;28;19925;-88
2022/04/14 08:52:55;;;;;;;;;;;26.30;60.90;;;;;;4952787;28;19921;-89
2022/04/14 08:55:21;;;;;;;;;;;26.30;60.20;;;;;;4973081;28;20378;-89
2022/04/14 08:57:47;;;;;;;;;;;26.30;60.20;;;;;;4961796;28;19914;-89
2022/04/14 09:00:16;;;;;;;;;;;26.20;60.20;;;;;;4955987;28;20010;-89
2022/04/14 09:02:45;;;;;;;;;;;26.20;59.50;;;;;;4958070;28;20629;-88
2022/04/14 09:05:17;;;;;;;;;;;26.20;59.10;;;;;;4963968;28;19918;-86
2022/04/14 09:07:46;;;;;;;;;;;26.10;60.60;;;;;;4965607;28;19915;-87
2022/04/14 09:10:12;;;;;;;;;;;26.10;60.50;;;;;;4951471;28;19950;-88
2022/04/14 09:12:37;;;;;;;;;;;26.20;60.40;;;;;;4962411;28;19915;-86
2022/04/14 09:15:04;;;;;;;;;;;26.20;60.70;;;;;;4979164;28;19969;-88
2022/04/14 09:17:31;;;;;;;;;;;26.20;60.10;;;;;;4950917;28;19914;-87
2022/04/14 09:19:57;;;;;;;;;;;26.30;59.70;;;;;;4966851;28;19914;-87
2022/04/14 09:22:23;;;;;;;;;;;26.30;59.80;;;;;;4962904;28;20036;-88
2022/04/14 09:24:53;;;;;;;;;;;26.30;60.60;;;;;;4958067;28;19922;-88
2022/04/14 09:27:29;;;;;;;;;;;26.30;59.90;;;;;;4966807;28;20074;-89
2022/04/14 09:29:55;;;;;;;;;;;26.30;59.50;;;;;;4970148;28;19954;-86
2022/04/14 09:32:31;;;;;;;;;;;26.30;59.20;;;;;;4971371;28;19914;-87
2022/04/14 09:34:58;;;;;;;;;;;26.30;58.60;;;;;;4963098;28;19988;-87
2022/04/14 09:37:24;;;;;;;;;;;26.30;59.40;;;;;;4957031;28;19918;-87
2022/04/14 09:39:53;;;;;;;;;;;26.40;60.60;;;;;;4978857;28;19921;-88
2022/04/14 09:42:23;;;;;;;;;;;26.90;61.20;;;;;;4981530;28;19917;-87
2022/04/14 09:44:50;;;;;;;;;;;27.60;60.70;;;;;;4949382;28;19925;-88
2022/04/14 09:47:47;;;;;;;;;;;28.30;60.40;;;;;;4964923;28;20025;-89
2022/04/14 09:50:40;;;;;;;;;;;28.90;56.20;;;;;;4963895;28;19961;-88
2022/04/14 09:53:21;;;;;;;;;;;29.80;57.00;;;;;;4968747;28;19922;-87
2022/04/14 09:55:49;;;;;;;;;;;30.60;54.30;;;;;;4991181;28;19913;-88
2022/04/14 09:58:19;;;;;;;;;;;31.40;51.90;;;;;;4961390;28;19925;-88
2022/04/14 10:00:55;;;;;;;;;;;32.10;50.80;;;;;;4986264;28;19914;-89
2022/04/14 10:03:21;;;;;;;;;;;32.70;50.20;;;;;;4993664;28;19930;-87
2022/04/14 10:05:52;;;;;;;;;;;33.30;48.50;;;;;;4966516;28;19914;-88
2022/04/14 10:08:18;;;;;;;;;;;34.00;46.80;;;;;;4954984;28;19942;-89
2022/04/14 10:10:46;;;;;;;;;;;34.50;46.70;;;;;;4967937;28;19918;-86
2022/04/14 10:13:14;;;;;;;;;;;35.20;44.90;;;;;;4951970;28;19942;-87
2022/04/14 10:15:41;;;;;;;;;;;35.40;42.10;;;;;;4976911;28;19914;-88
2022/04/14 10:18:09;;;;;;;;;;;35.70;41.00;;;;;;4975886;28;19929;-88
2022/04/14 10:20:37;;;;;;;;;;;36.00;41.40;;;;;;4973849;28;19937;-88
2022/04/14 10:23:07;;;;;;;;;;;36.40;38.20;;;;;;4954744;28;19929;-87
2022/04/14 10:25:36;;;;;;;;;;;36.90;37.40;;;;;;4975292;28;20401;-88
2022/04/14 10:28:08;;;;;;;;;;;37.30;37.60;;;;;;4965887;28;20026;-88
2022/04/14 10:30:34;;;;;;;;;;;37.70;36.60;;;;;;4963986;28;19918;-88
2022/04/14 10:33:06;;;;;;;;;;;37.80;34.30;;;;;;4948326;28;20315;-87
2022/04/14 10:35:31;;;;;;;;;;;37.50;33.60;;;;;;4958319;28;19918;-87
2022/04/14 10:38:03;;;;;;;;;;;37.30;33.90;;;;;;4974600;28;19924;-87
2022/04/14 10:40:30;;;;;;;;;;;37.20;34.10;;;;;;4969810;28;19918;-88
2022/04/14 10:42:57;;;;;;;;;;;37.30;33.50;;;;;;4974239;28;20461;-87
2022/04/14 10:45:25;;;;;;;;;;;37.30;32.50;;;;;;4955878;28;20406;-88
2022/04/14 10:47:50;;;;;;;;;;;37.20;31.60;;;;;;4970543;28;20359;-87
2022/04/14 10:50:22;;;;;;;;;;;37.10;31.40;;;;;;4967486;28;20033;-87
2022/04/14 10:53:11;;;;;;;;;;;36.90;30.90;;;;;;4968911;28;19978;-88
2022/04/14 10:55:41;;;;;;;;;;;36.70;30.80;;;;;;4962247;28;20009;-87
2022/04/14 10:58:07;;;;;;;;;;;36.30;30.50;;;;;;4956745;28;19924;-87
2022/04/14 11:00:34;;;;;;;;;;;35.80;30.40;;;;;;4960701;28;19918;-89
2022/04/14 11:03:05;;;;;;;;;;;35.40;29.70;;;;;;4955174;28;19945;-88
2022/04/14 11:05:37;;;;;;;;;;;35.20;30.70;;;;;;4953301;28;20274;-87
2022/04/14 11:08:22;;;;;;;;;;;35.50;29.00;;;;;;4962267;28;19961;-88
2022/04/14 11:10:53;;;;;;;;;;;35.60;29.40;;;;;;4976840;28;19941;-88
2022/04/14 11:13:22;;;;;;;;;;;35.40;29.50;;;;;;4984893;28;19910;-89
2022/04/14 11:15:48;;;;;;;;;;;35.20;29.50;;;;;;4971777;28;20001;-87
2022/04/14 11:18:13;;;;;;;;;;;34.90;29.70;;;;;;4970786;28;19976;-87
2022/04/14 11:20:51;;;;;;;;;;;34.70;29.60;;;;;;4967109;28;19918;-87
2022/04/14 11:23:28;;;;;;;;;;;34.70;29.90;;;;;;4962812;28;19918;-87
2022/04/14 11:26:04;;;;;;;;;;;35.00;28.70;;;;;;4967154;28;19922;-86
2022/04/14 11:28:34;;;;;;;;;;;35.20;28.10;;;;;;4981963;28;19970;-87
2022/04/14 11:31:18;;;;;;;;;;;34.80;28.30;;;;;;4972291;28;19921;-88
2022/04/14 11:33:47;;;;;;;;;;;35.10;28.40;;;;;;4959074;28;20370;-88
2022/04/14 11:36:27;;;;;;;;;;;35.20;28.10;;;;;;4963753;28;19941;-88
2022/04/14 11:38:53;;;;;;;;;;;35.10;28.20;;;;;;4969270;28;19938;-87
2022/04/14 11:41:35;;;;;;;;;;;35.70;27.90;;;;;;4976526;28;19981;-87
2022/04/14 11:44:05;;;;;;;;;;;36.10;26.20;;;;;;4965124;28;20019;-88
2022/04/14 11:46:31;;;;;;;;;;;36.50;25.40;;;;;;4978769;28;19918;-87
2022/04/14 11:48:58;;;;;;;;;;;37.00;25.90;;;;;;4952296;28;19937;-87
2022/04/14 11:51:23;;;;;;;;;;;37.70;25.70;;;;;;4943804;28;19913;-88
2022/04/14 11:53:50;;;;;;;;;;;38.30;25.40;;;;;;4979125;28;19914;-88
2022/04/14 11:56:17;;;;;;;;;;;38.70;24.60;;;;;;4978821;28;19918;-88
2022/04/14 11:58:43;;;;;;;;;;;38.80;23.50;;;;;;4963352;28;20404;-86
2022/04/14 12:01:12;;;;;;;;;;;38.30;23.70;;;;;;4984877;28;19949;-87
2022/04/14 12:03:39;;;;;;;;;;;38.20;24.30;;;;;;4960740;28;19925;-88
2022/04/14 12:06:06;;;;;;;;;;;38.30;24.20;;;;;;4996056;28;19913;-88
2022/04/14 12:08:32;;;;;;;;;;;38.80;23.80;;;;;;4982973;28;19949;-88
2022/04/14 12:11:20;;;;;;;;;;;39.30;23.50;;;;;;4963517;28;19973;-88
2022/04/14 12:13:49;;;;;;;;;;;39.80;23.20;;;;;;4948251;28;19911;-88
2022/04/14 12:16:14;;;;;;;;;;;39.60;22.80;;;;;;4955709;28;20400;-87
2022/04/14 12:18:48;;;;;;;;;;;38.90;22.70;;;;;;4944898;29;19918;-88
2022/04/14 12:21:18;;;;;;;;;;;38.00;23.10;;;;;;4971880;28;19969;-85
2022/04/14 12:23:47;;;;;;;;;;;37.00;23.30;;;;;;4979868;28;19914;-86
2022/04/14 12:26:13;;;;;;;;;;;36.70;23.90;;;;;;4977943;28;19980;-88
2022/04/14 12:28:39;;;;;;;;;;;36.40;24.10;;;;;;4966051;28;19997;-87
2022/04/14 12:31:11;;;;;;;;;;;36.50;24.00;;;;;;4987304;28;20016;-87
2022/04/14 12:33:37;;;;;;;;;;;36.50;24.00;;;;;;4979698;28;19910;-90
2022/04/14 12:36:06;;;;;;;;;;;35.90;24.30;;;;;;4983250;28;19925;-87
2022/04/14 12:38:41;;;;;;;;;;;35.30;24.80;;;;;;4974153;28;19917;-87
2022/04/14 12:41:15;;;;;;;;;;;35.60;24.80;;;;;;5000543;28;19921;-88
2022/04/14 12:43:46;;;;;;;;;;;36.20;24.70;;;;;;4971947;28;19914;-88
2022/04/14 12:46:25;;;;;;;;;;;36.40;24.30;;;;;;4966864;28;19973;-88
2022/04/14 12:49:07;;;;;;;;;;;36.30;24.40;;;;;;4963459;28;19921;-87
2022/04/14 12:51:40;;;;;;;;;;;35.80;24.40;;;;;;4990386;28;20425;-88
2022/04/14 12:54:09;;;;;;;;;;;35.30;24.80;;;;;;4963249;28;20496;-88
2022/04/14 12:56:36;;;;;;;;;;;34.80;25.00;;;;;;4969693;28;19962;-88
2022/04/14 12:59:12;;;;;;;;;;;34.40;25.30;;;;;;4993227;28;20433;-87
2022/04/14 13:01:44;;;;;;;;;;;34.00;25.60;;;;;;4972445;28;19917;-88
2022/04/14 13:04:10;;;;;;;;;;;33.70;25.90;;;;;;4961965;28;20354;-88
2022/04/14 13:06:37;;;;;;;;;;;33.30;26.10;;;;;;4961977;28;19929;-88
2022/04/14 13:09:16;;;;;;;;;;;33.00;26.40;;;;;;4964879;28;19914;-87
2022/04/14 13:11:46;;;;;;;;;;;32.70;26.60;;;;;;4980098;28;19922;-87
2022/04/14 13:14:17;;;;;;;;;;;32.20;26.60;;;;;;4974011;28;20262;-87
2022/04/14 13:16:44;;;;;;;;;;;31.80;26.90;;;;;;4969051;28;20008;-88
2022/04/14 13:19:09;;;;;;;;;;;31.40;27.00;;;;;;4980488;28;20297;-85
2022/04/14 13:21:35;;;;;;;;;;;31.10;27.20;;;;;;4998869;28;19985;-89
2022/04/14 13:24:06;;;;;;;;;;;30.80;27.60;;;;;;4999245;28;19914;-88
2022/04/14 13:26:31;;;;;;;;;;;30.50;27.90;;;;;;4970925;28;19946;-87
2022/04/14 13:29:01;;;;;;;;;;;30.20;28.30;;;;;;4995305;28;20384;-88
2022/04/14 13:31:27;;;;;;;;;;;29.90;28.60;;;;;;4976299;28;19974;-86
2022/04/14 13:33:52;;;;;;;;;;;29.60;28.80;;;;;;4976557;28;20366;-88
2022/04/14 13:36:18;;;;;;;;;;;29.30;29.00;;;;;;4973089;28;19914;-87
2022/04/14 13:38:46;;;;;;;;;;;29.20;29.40;;;;;;4969506;28;19918;-89
2022/04/14 13:41:13;;;;;;;;;;;28.90;29.70;;;;;;4975331;28;19930;-89
2022/04/14 13:43:39;;;;;;;;;;;28.70;30.00;;;;;;4965125;28;20398;-89
2022/04/14 13:46:10;;;;;;;;;;;28.50;30.40;;;;;;4967774;28;19918;-88
2022/04/14 13:48:37;;;;;;;;;;;28.30;30.60;;;;;;4963201;28;19992;-88
2022/04/14 13:51:03;;;;;;;;;;;28.10;31.00;;;;;;4993566;28;19918;-88
2022/04/14 13:53:29;;;;;;;;;;;28.00;31.40;;;;;;4977015;28;19974;-89
2022/04/14 13:55:55;;;;;;;;;;;27.90;31.60;;;;;;4980842;28;19985;-88
2022/04/14 13:58:23;;;;;;;;;;;27.80;31.80;;;;;;4946907;28;19915;-87
2022/04/14 14:00:49;;;;;;;;;;;27.70;31.90;;;;;;4970335;28;19941;-90
2022/04/14 14:03:15;;;;;;;;;;;27.60;32.00;;;;;;4974947;28;19914;-89
2022/04/14 14:05:41;;;;;;;;;;;27.60;32.20;;;;;;4966908;28;19922;-88
2022/04/14 14:08:08;;;;;;;;;;;27.60;32.30;;;;;;4962465;28;19914;-88
2022/04/14 14:10:40;;;;;;;;;;;27.60;32.30;;;;;;4963880;28;20356;-88
2022/04/14 14:13:06;;;;;;;;;;;27.70;32.40;;;;;;4995737;28;19969;-87
2022/04/14 14:15:32;;;;;;;;;;;27.70;32.30;;;;;;4976018;28;19921;-87